Huvudsida
METAR-TAF:

METAR-TAF

Flygplatser :

Alta flygplats

Alta, Norge

latitud: 69-59N, longitud: 023-22E, höjd: 0 m

Aktuellt väderrapport

Denna rapport gjordes för 1 timme och 8 minuter sedan, klockan 17:50 UTC
Vind 4 kt från nordväst, varierande mellan väst och nord/nordväst
Temperatur 5°C
Fuktighet 70%
Tryck 1008 hPa
Sikt 10 km eller mer
Spridda moln på en höjd av 3800 ft
Spridda moln på en höjd av 11000 ft

METAR: ENAT 201750Z 32004KT 270V340 9999 SCT038 SCT110 05/00 Q1008 RMK WIND 700FT 31006KT

Tid: 20:58 (18:58 UTC)

Väderprognos

Denna rapport gjordes för 1 timme och 58 minuter sedan, klockan 17:00 UTC
Prognos gäller från 20 kl. 18 UTC till 20 kl. 23 UTC
Vind 8 kt från nordväst
Sikt 10 km eller mer
Få moln på en höjd av 2000 ft
Brutna moln på en höjd av 4000 ft

TAF: ENAT 201700Z 2018/2023 32008KT 9999 FEW020 BKN040

Aktuella väderrapporter och prognoser från 4000 flygplatser (METAR- och TAF-rapporter).

De tillgängliga stationerna syns som gula och röda prickar på kartan.

För musen över prickarna för att se namnen på stationerna.

Klicka sedan för att få väderrapporter och prognoser.

För att ändra kartan: Klicka på de gröna knapparna med ett svart kors på för att zooma in; den gröna knappen med ett streck på för att zooma ut; eller på de gröna pilarna för angränsande kartor.


METAR-TAF: